OTHH Airport Information

Runway Information
Airport Frequencies
Airport Navaids
Airport Weather Information & NOTAM
ADDS - METARS form results

(0255 UTC 19 September 2021)
Data provider http://aviationweather.gov/metar/data/
 
METAR text: OTHH 190200Z 36006KT CAVOK 31/26 Q1003 NOSIG
Conditions at: OTHH (DOHA HAMAD INTL , QA) observed 0200 UTC 19 September 2021
Temperature: 31.0°C (88°F)
Dewpoint: 26.0°C (79°F) [RH = 75%]
Pressure (altimeter): 29.62 inches Hg (1003.0 mb)
Winds: from the N (360 degrees) at 7 MPH (6 knots; 3.1 m/s)
Visibility: 6 or more miles (10+ km)
Ceiling: ceiling and visibility are OK
Clouds: unknown
Weather: no significant weather observed at this time

Forecast for: OTHH (DOHA HAMAD INTL , QA)
Text: TAF OTHH 182307Z 1900/2006 33005KT CAVOK
Forecast period: 0000 to 0500 UTC 19 September 2021
Forecast type: FROM: standard forecast or significant change
Winds: from the NNW (330 degrees) at 6 MPH (5 knots; 2.6 m/s)
Visibility: 6 or more miles (10+ km)
Ceiling: unknown
Clouds: missing
Weather: NSW  (no significant weather)
Text: BECMG 1905/1907 04007KT
Forecast period: 0500 UTC 19 September 2021 to 0600 UTC 20 September 2021
Forecast type: BECOMING: Conditions expected to become as follows by 0700 UTC 19 September 2021
Winds: from the NE (40 degrees) at 8 MPH (7 knots; 3.6 m/s)
Visibility: 6 or more miles (10+ km)
Ceiling: unknown
Clouds: missing
Weather: NSW  (no significant weather)